METAR Data
IDs: Format: Raw Decoded Include TAF

Data at: 0203 UTC 01 Mar 2021

EFKT 010150Z AUTO 25005KT 220V290 CAVOK 02/M02 Q0999